createdAt,value
2023-02-20T00:00:24.787Z,97353.77
2023-02-20T00:03:15.811Z,97354.11
2023-02-20T00:05:44.727Z,97356.33
2023-02-20T00:08:14.747Z,97353.16
2023-02-20T00:10:44.256Z,97352.23
2023-02-20T00:13:13.988Z,97362.75
2023-02-20T00:15:43.408Z,97368.64
2023-02-20T00:18:12.922Z,97370.05
2023-02-20T00:20:42.382Z,97378.48
2023-02-20T00:23:11.468Z,97384.71
2023-02-20T00:25:40.462Z,97388.63
2023-02-20T00:28:09.660Z,97404.30
2023-02-20T00:30:38.815Z,97410.36
2023-02-20T00:33:07.747Z,97414.61
2023-02-20T00:35:39.032Z,97416.69
2023-02-20T00:38:07.881Z,97418.61
2023-02-20T00:40:36.874Z,97413.36
2023-02-20T00:43:06.443Z,97415.27
2023-02-20T00:45:37.711Z,97410.23
2023-02-20T00:48:06.740Z,97408.28
2023-02-20T00:50:35.630Z,97406.02
2023-02-20T00:53:04.557Z,97402.30
2023-02-20T00:55:33.811Z,97398.75
2023-02-20T00:58:04.333Z,97408.30
2023-02-20T01:00:34.681Z,97419.66
2023-02-20T01:03:04.821Z,97426.71
2023-02-20T01:05:35.213Z,97429.77
2023-02-20T01:08:04.317Z,97426.58
2023-02-20T01:10:32.984Z,97421.83
2023-02-20T01:13:02.496Z,97426.18
2023-02-20T01:15:31.779Z,97436.11
2023-02-20T01:18:02.189Z,97444.55
2023-02-20T01:20:31.656Z,97446.56
2023-02-20T01:23:02.809Z,97451.65
2023-02-20T01:25:32.501Z,97462.59
2023-02-20T01:28:02.096Z,97465.06
2023-02-20T01:30:32.328Z,97468.07
2023-02-20T01:33:02.940Z,97480.70
2023-02-20T01:35:34.003Z,97490.52
2023-02-20T01:38:07.376Z,97493.74
2023-02-20T01:40:38.114Z,97496.94
2023-02-20T01:43:08.169Z,97499.28
2023-02-20T01:45:38.623Z,97509.54
2023-02-20T01:48:22.183Z,97510.35
2023-02-20T01:51:01.978Z,97510.15
2023-02-20T01:53:34.751Z,97511.49
2023-02-20T01:56:09.829Z,97511.17
2023-02-20T01:58:45.996Z,97507.20
2023-02-20T02:01:16.497Z,97512.05
2023-02-20T02:03:55.668Z,97517.95
2023-02-20T02:06:26.742Z,97515.58
2023-02-20T02:09:00.935Z,97518.95
2023-02-20T02:11:30.789Z,97523.08
2023-02-20T02:14:01.886Z,97526.16
2023-02-20T02:16:50.316Z,97529.86
2023-02-20T02:20:03.565Z,97535.66
2023-02-20T02:22:58.357Z,97528.77
2023-02-20T02:25:49.208Z,97526.10
2023-02-20T02:28:32.575Z,97525.95
2023-02-20T02:31:33.370Z,97525.62
2023-02-20T02:34:29.876Z,97521.31
2023-02-20T02:37:17.051Z,97520.31
2023-02-20T02:39:50.793Z,97526.17
2023-02-20T02:42:35.514Z,97530.20
2023-02-20T02:45:32.513Z,97531.33
2023-02-20T02:48:20.734Z,97538.42
2023-02-20T02:50:55.255Z,97544.05
2023-02-20T02:53:24.757Z,97539.86
2023-02-20T02:55:55.146Z,97546.33
2023-02-20T02:58:25.262Z,97549.33
2023-02-20T03:01:02.910Z,97548.23
2023-02-20T03:03:41.827Z,97555.00
2023-02-20T03:06:19.322Z,97551.70
2023-02-20T03:09:01.208Z,97562.23
2023-02-20T03:11:36.905Z,97568.61
2023-02-20T03:15:03.059Z,97572.84
2023-02-20T03:17:42.144Z,97573.66
2023-02-20T03:20:17.587Z,97585.91
2023-02-20T03:23:02.619Z,97587.44
2023-02-20T03:25:42.138Z,97596.02
2023-02-20T03:28:18.778Z,97600.19
2023-02-20T03:30:57.679Z,97602.86
2023-02-20T03:33:54.653Z,97609.09
2023-02-20T03:37:17.492Z,97613.08
2023-02-20T03:40:11.786Z,97607.77
2023-02-20T03:43:11.378Z,97613.58
2023-02-20T03:45:43.754Z,97609.57
2023-02-20T03:48:23.233Z,97607.15
2023-02-20T03:50:53.424Z,97605.34
2023-02-20T03:53:26.181Z,97603.83
2023-02-20T03:56:00.360Z,97610.38
2023-02-20T03:58:36.087Z,97618.27
2023-02-20T04:01:09.314Z,97614.09
2023-02-20T04:03:41.896Z,97616.31
2023-02-20T04:06:13.024Z,97624.53
2023-02-20T04:09:07.937Z,97634.92
2023-02-20T04:11:58.547Z,97637.56
2023-02-20T04:14:32.073Z,97643.31
2023-02-20T04:17:09.679Z,97645.45
2023-02-20T04:19:40.392Z,97658.19
2023-02-20T04:22:15.374Z,97664.34
2023-02-20T04:24:56.437Z,97668.54
2023-02-20T04:27:28.117Z,97665.93
2023-02-20T04:29:59.435Z,97670.72
2023-02-20T04:32:28.591Z,97666.64
2023-02-20T04:34:58.317Z,97670.95
2023-02-20T04:37:28.443Z,97675.77
2023-02-20T04:39:58.312Z,97685.92
2023-02-20T04:42:27.941Z,97683.55
2023-02-20T04:44:58.879Z,97678.13
2023-02-20T04:47:29.301Z,97682.75
2023-02-20T04:50:00.162Z,97682.80
2023-02-20T04:52:29.686Z,97686.73
2023-02-20T04:54:58.606Z,97692.96
2023-02-20T04:57:27.938Z,97694.70
2023-02-20T04:59:58.370Z,97693.42
2023-02-20T05:02:27.363Z,97697.17
2023-02-20T05:04:56.592Z,97701.52
2023-02-20T05:07:26.067Z,97701.68
2023-02-20T05:09:55.061Z,97701.69
2023-02-20T05:12:24.454Z,97701.56
2023-02-20T05:14:55.592Z,97702.35
2023-02-20T05:17:25.413Z,97706.90
2023-02-20T05:19:54.910Z,97718.11
2023-02-20T05:22:24.213Z,97725.75
2023-02-20T05:24:53.511Z,97731.80
2023-02-20T05:27:24.293Z,97734.41
2023-02-20T05:29:59.253Z,97742.46
2023-02-20T05:32:30.943Z,97744.80
2023-02-20T05:35:00.335Z,97760.02
2023-02-20T05:37:33.743Z,97765.98
2023-02-20T05:40:07.600Z,97761.85
2023-02-20T05:42:37.828Z,97762.70
2023-02-20T05:45:09.515Z,97760.71
2023-02-20T05:47:39.236Z,97777.14
2023-02-20T05:50:08.330Z,97787.02
2023-02-20T05:52:37.339Z,97793.45
2023-02-20T05:55:07.137Z,97801.78
2023-02-20T05:57:36.119Z,97810.05
2023-02-20T06:00:05.726Z,97818.80
2023-02-20T06:02:40.761Z,97826.23
2023-02-20T06:05:10.065Z,97841.91
2023-02-20T06:07:38.753Z,97853.34
2023-02-20T06:10:07.837Z,97857.16
2023-02-20T06:12:36.730Z,97860.36
2023-02-20T06:15:06.535Z,97863.70
2023-02-20T06:17:35.333Z,97871.76
2023-02-20T06:20:04.729Z,97881.13
2023-02-20T06:22:33.619Z,97881.02
2023-02-20T06:25:02.404Z,97870.53
2023-02-20T06:27:31.298Z,97877.07
2023-02-20T06:30:00.205Z,97875.46
2023-02-20T06:32:28.753Z,97881.48
2023-02-20T06:34:57.769Z,97885.14
2023-02-20T06:37:26.461Z,97890.26
2023-02-20T06:39:55.275Z,97897.40
2023-02-20T06:42:24.233Z,97904.70
2023-02-20T06:44:53.137Z,97908.15
2023-02-20T06:47:21.916Z,97913.35
2023-02-20T06:49:51.332Z,97912.87
2023-02-20T06:52:19.902Z,97920.57
2023-02-20T06:54:48.747Z,97923.55
2023-02-20T06:57:17.384Z,97931.44
2023-02-20T06:59:48.217Z,97937.65
2023-02-20T07:02:18.453Z,97940.59
2023-02-20T07:04:50.497Z,97945.65
2023-02-20T07:07:19.289Z,97950.02
2023-02-20T07:09:47.967Z,97953.42
2023-02-20T07:12:16.558Z,97955.79
2023-02-20T07:14:45.334Z,97963.27
2023-02-20T07:17:14.438Z,97961.05
2023-02-20T07:19:43.016Z,97961.56
2023-02-20T07:22:11.626Z,97958.66
2023-02-20T07:24:42.128Z,97957.34
2023-02-20T07:27:14.503Z,97956.23
2023-02-20T07:29:46.704Z,97964.91
2023-02-20T07:32:20.723Z,97972.22
2023-02-20T07:35:02.687Z,97977.41
2023-02-20T07:37:33.920Z,97978.92
2023-02-20T07:40:03.249Z,97976.50
2023-02-20T07:42:33.144Z,97978.86
2023-02-20T07:45:11.750Z,97975.08
2023-02-20T07:47:40.329Z,97975.60
2023-02-20T07:50:09.483Z,97973.40
2023-02-20T07:52:38.018Z,97978.34
2023-02-20T07:55:07.002Z,97982.90
2023-02-20T07:57:37.396Z,97981.29
2023-02-20T08:00:07.490Z,97975.08
2023-02-20T08:02:41.886Z,97985.94
2023-02-20T08:05:11.134Z,97991.98
2023-02-20T08:07:45.890Z,97997.52
2023-02-20T08:10:16.850Z,97993.55
2023-02-20T08:12:46.148Z,97995.91
2023-02-20T08:15:15.428Z,98003.05
2023-02-20T08:17:47.154Z,98011.06
2023-02-20T08:20:17.968Z,98009.70
2023-02-20T08:22:48.041Z,98003.13
2023-02-20T08:25:19.129Z,98004.21
2023-02-20T08:27:50.029Z,98002.89
2023-02-20T08:30:24.390Z,97999.72
2023-02-20T08:32:54.692Z,98003.79
2023-02-20T08:35:25.312Z,97999.03
2023-02-20T08:37:54.488Z,97998.34
2023-02-20T08:40:23.355Z,98001.98
2023-02-20T08:42:51.963Z,97998.86
2023-02-20T08:45:21.468Z,97997.42
2023-02-20T08:47:50.563Z,98000.73
2023-02-20T08:50:19.758Z,97995.52
2023-02-20T08:52:48.752Z,97994.81
2023-02-20T08:55:17.546Z,97991.76
2023-02-20T08:57:46.143Z,97994.16
2023-02-20T09:00:17.755Z,97991.43
2023-02-20T09:02:49.761Z,97993.34
2023-02-20T09:05:18.941Z,97985.98
2023-02-20T09:07:47.519Z,97981.22
2023-02-20T09:10:19.585Z,97982.92
2023-02-20T09:12:48.474Z,97977.77
2023-02-20T09:15:18.466Z,97974.94
2023-02-20T09:17:51.101Z,97977.54
2023-02-20T09:20:22.095Z,97976.73
2023-02-20T09:22:51.460Z,97977.71
2023-02-20T09:25:20.404Z,97980.58
2023-02-20T09:27:49.095Z,97976.89
2023-02-20T09:30:21.239Z,97980.38
2023-02-20T09:32:51.177Z,97982.73
2023-02-20T09:35:31.115Z,97984.02
2023-02-20T09:37:59.607Z,97981.58
2023-02-20T09:40:31.143Z,97975.67
2023-02-20T09:43:21.137Z,97967.49
2023-02-20T09:46:04.629Z,97965.72
2023-02-20T09:48:55.073Z,97956.15
2023-02-20T09:51:27.949Z,97956.14
2023-02-20T09:53:56.429Z,97958.83
2023-02-20T09:56:35.253Z,97954.46
2023-02-20T09:59:15.733Z,97954.41
2023-02-20T10:02:01.614Z,97952.27
2023-02-20T10:05:04.903Z,97950.44
2023-02-20T10:07:42.313Z,97949.40
2023-02-20T10:10:23.128Z,97942.66
2023-02-20T10:13:07.822Z,97938.70
2023-02-20T10:16:01.038Z,97932.85
2023-02-20T10:18:39.304Z,97918.66
2023-02-20T10:21:10.777Z,97923.58
2023-02-20T10:23:45.673Z,97927.15
2023-02-20T10:26:21.535Z,97918.54
2023-02-20T10:28:51.501Z,97909.34
2023-02-20T10:31:46.342Z,97902.15
2023-02-20T10:34:22.385Z,97896.44
2023-02-20T10:36:55.597Z,97894.65
2023-02-20T10:39:26.011Z,97898.64
2023-02-20T10:42:16.937Z,97899.23
2023-02-20T10:45:01.589Z,97887.11
2023-02-20T10:47:33.146Z,97885.20
2023-02-20T10:50:37.468Z,97879.42
2023-02-20T10:53:27.146Z,97872.73
2023-02-20T10:56:14.575Z,97865.91
2023-02-20T10:58:43.352Z,97860.45
2023-02-20T11:01:23.865Z,97856.55
2023-02-20T11:03:59.908Z,97842.48
2023-02-20T11:06:42.593Z,97838.92
2023-02-20T11:09:11.880Z,97846.33
2023-02-20T11:11:47.254Z,97844.21
2023-02-20T11:14:15.803Z,97839.63
2023-02-20T11:17:00.881Z,97838.87
2023-02-20T11:19:41.971Z,97837.94
2023-02-20T11:22:11.662Z,97833.02
2023-02-20T11:24:42.597Z,97828.86
2023-02-20T11:27:15.696Z,97825.21
2023-02-20T11:29:56.844Z,97819.20
2023-02-20T11:32:39.481Z,97811.39
2023-02-20T11:35:19.851Z,97807.31
2023-02-20T11:38:12.652Z,97804.36
2023-02-20T11:40:41.494Z,97811.63
2023-02-20T11:43:34.856Z,97807.14
2023-02-20T11:46:20.467Z,97798.73
2023-02-20T11:48:55.065Z,97790.12
2023-02-20T11:51:35.930Z,97794.64
2023-02-20T11:54:24.776Z,97792.84
2023-02-20T11:57:18.048Z,97792.50
2023-02-20T11:59:49.101Z,97787.65
2023-02-20T12:02:17.871Z,97778.95
2023-02-20T12:05:11.287Z,97776.03
2023-02-20T12:07:39.924Z,97778.63
2023-02-20T12:10:32.265Z,97777.54
2023-02-20T12:13:01.760Z,97779.95
2023-02-20T12:15:30.858Z,97773.85
2023-02-20T12:17:59.542Z,97761.63
2023-02-20T12:20:30.481Z,97757.16
2023-02-20T12:23:24.564Z,97751.31
2023-02-20T12:26:23.356Z,97755.64
2023-02-20T12:29:36.892Z,97760.55
2023-02-20T12:32:17.568Z,97767.27
2023-02-20T12:35:12.662Z,97763.66
2023-02-20T12:37:56.416Z,97759.83
2023-02-20T12:40:31.128Z,97754.05
2023-02-20T12:43:38.727Z,97750.89
2023-02-20T12:46:18.457Z,97751.60
2023-02-20T12:49:15.522Z,97744.29
2023-02-20T12:51:44.118Z,97736.18
2023-02-20T12:54:28.151Z,97728.39
2023-02-20T12:57:20.820Z,97716.01
2023-02-20T12:59:55.129Z,97707.15
2023-02-20T13:02:43.089Z,97697.59
2023-02-20T13:05:19.471Z,97697.65
2023-02-20T13:07:56.923Z,97698.58
2023-02-20T13:10:25.720Z,97693.85
2023-02-20T13:12:55.417Z,97696.13
2023-02-20T13:15:57.719Z,97700.45
2023-02-20T13:18:55.044Z,97702.80
2023-02-20T13:21:28.952Z,97702.42
2023-02-20T13:24:19.349Z,97708.05
2023-02-20T13:26:50.084Z,97712.39
2023-02-20T13:29:27.994Z,97709.23
2023-02-20T13:32:24.651Z,97702.50
2023-02-20T13:34:53.622Z,97692.27
2023-02-20T13:37:34.690Z,97687.52
2023-02-20T13:40:28.580Z,97676.73
2023-02-20T13:43:18.354Z,97668.95
2023-02-20T13:45:47.565Z,97651.86
2023-02-20T13:48:31.585Z,97643.75
2023-02-20T13:51:15.533Z,97646.81
2023-02-20T13:53:48.793Z,97640.61
2023-02-20T13:56:20.277Z,97633.77
2023-02-20T13:58:51.336Z,97628.48
2023-02-20T14:01:19.956Z,97631.46
2023-02-20T14:04:02.404Z,97637.22
2023-02-20T14:06:31.735Z,97643.98
2023-02-20T14:09:12.067Z,97628.53
2023-02-20T14:11:41.989Z,97618.77
2023-02-20T14:14:22.030Z,97610.91
2023-02-20T14:16:50.889Z,97598.87
2023-02-20T14:19:29.979Z,97607.73
2023-02-20T14:22:25.277Z,97612.70
2023-02-20T14:25:19.140Z,97620.70
2023-02-20T14:27:50.235Z,97622.42
2023-02-20T14:30:22.884Z,97621.61
2023-02-20T14:32:56.525Z,97614.75
2023-02-20T14:35:37.533Z,97614.20
2023-02-20T14:38:32.430Z,97603.37
2023-02-20T14:41:10.743Z,97598.98
2023-02-20T14:43:39.541Z,97593.04
2023-02-20T14:46:18.914Z,97590.23
2023-02-20T14:48:47.659Z,97586.10
2023-02-20T14:51:23.103Z,97588.59
2023-02-20T14:54:03.479Z,97591.75
2023-02-20T14:56:34.076Z,97586.59
2023-02-20T14:59:21.819Z,97585.24
2023-02-20T15:01:52.321Z,97586.52
2023-02-20T15:04:21.039Z,97583.68
2023-02-20T15:06:52.386Z,97581.91
2023-02-20T15:09:23.376Z,97576.14
2023-02-20T15:11:58.164Z,97572.21
2023-02-20T15:14:29.654Z,97568.83
2023-02-20T15:17:14.980Z,97573.23
2023-02-20T15:19:43.764Z,97569.70
2023-02-20T15:22:29.878Z,97572.27
2023-02-20T15:25:23.021Z,97568.48
2023-02-20T15:28:14.034Z,97565.09
2023-02-20T15:31:04.996Z,97565.63
2023-02-20T15:33:37.130Z,97563.25
2023-02-20T15:36:12.130Z,97563.45
2023-02-20T15:38:41.438Z,97565.98
2023-02-20T15:41:12.610Z,97556.42
2023-02-20T15:43:51.265Z,97561.68
2023-02-20T15:46:21.224Z,97554.71
2023-02-20T15:48:50.002Z,97556.42
2023-02-20T15:51:22.475Z,97552.25
2023-02-20T15:53:53.845Z,97557.05
2023-02-20T15:56:22.517Z,97558.55
2023-02-20T15:58:52.015Z,97555.02
2023-02-20T16:01:20.752Z,97553.48
2023-02-20T16:03:52.755Z,97559.23
2023-02-20T16:06:23.380Z,97555.39
2023-02-20T16:08:53.111Z,97563.04
2023-02-20T16:11:28.760Z,97562.65
2023-02-20T16:14:00.512Z,97563.80
2023-02-20T16:16:36.408Z,97574.23
2023-02-20T16:19:15.908Z,97572.10
2023-02-20T16:21:58.072Z,97572.96
2023-02-20T16:24:27.749Z,97567.75
2023-02-20T16:26:56.730Z,97559.89
2023-02-20T16:29:34.202Z,97559.98
2023-02-20T16:32:03.071Z,97567.52
2023-02-20T16:34:33.114Z,97570.36
2023-02-20T16:37:02.857Z,97574.30
2023-02-20T16:39:33.450Z,97573.06
2023-02-20T16:42:12.071Z,97571.81
2023-02-20T16:44:45.079Z,97577.34
2023-02-20T16:47:16.818Z,97576.15
2023-02-20T16:49:46.009Z,97578.46
2023-02-20T16:52:24.160Z,97575.42
2023-02-20T16:54:55.166Z,97573.34
2023-02-20T16:57:24.355Z,97572.15
2023-02-20T16:59:56.281Z,97560.88
2023-02-20T17:02:29.061Z,97559.36
2023-02-20T17:04:58.746Z,97553.23
2023-02-20T17:07:28.110Z,97533.67
2023-02-20T17:09:59.260Z,97525.34
2023-02-20T17:12:28.141Z,97529.27
2023-02-20T17:14:58.474Z,97519.59
2023-02-20T17:17:28.093Z,97522.79
2023-02-20T17:19:57.368Z,97520.50
2023-02-20T17:22:27.085Z,97520.41
2023-02-20T17:24:57.650Z,97542.98
2023-02-20T17:27:26.312Z,97552.29
2023-02-20T17:29:54.816Z,97557.63
2023-02-20T17:32:24.551Z,97561.10
2023-02-20T17:34:53.170Z,97557.89
2023-02-20T17:37:22.064Z,97559.55
2023-02-20T17:39:50.647Z,97552.56
2023-02-20T17:42:19.229Z,97549.42
2023-02-20T17:44:47.839Z,97541.30
2023-02-20T17:47:17.010Z,97542.15
2023-02-20T17:49:50.723Z,97541.06
2023-02-20T17:52:19.914Z,97542.93
2023-02-20T17:54:49.884Z,97550.45
2023-02-20T17:57:19.865Z,97562.15
2023-02-20T17:59:52.250Z,97571.92
2023-02-20T18:02:20.796Z,97579.92
2023-02-20T18:04:49.476Z,97578.44
2023-02-20T18:07:20.416Z,97565.80
2023-02-20T18:09:49.101Z,97557.11
2023-02-20T18:12:17.724Z,97543.27
2023-02-20T18:14:47.703Z,97538.67
2023-02-20T18:17:16.492Z,97541.92
2023-02-20T18:19:45.497Z,97535.33
2023-02-20T18:22:14.170Z,97540.63
2023-02-20T18:24:43.056Z,97544.53
2023-02-20T18:27:12.562Z,97532.88
2023-02-20T18:29:41.250Z,97534.53
2023-02-20T18:32:10.225Z,97532.45
2023-02-20T18:34:39.134Z,97519.98
2023-02-20T18:37:07.817Z,97518.87
2023-02-20T18:39:36.501Z,97512.81
2023-02-20T18:42:06.227Z,97510.83
2023-02-20T18:44:34.883Z,97505.75
2023-02-20T18:47:03.599Z,97483.99
2023-02-20T18:49:32.682Z,97478.76
2023-02-20T18:52:02.592Z,97490.08
2023-02-20T18:54:33.141Z,97482.05
2023-02-20T18:57:03.550Z,97479.19
2023-02-20T18:59:32.343Z,97468.65
2023-02-20T19:02:03.720Z,97462.32
2023-02-20T19:04:33.598Z,97455.66
2023-02-20T19:07:04.025Z,97457.34
2023-02-20T19:09:37.109Z,97454.41
2023-02-20T19:12:07.714Z,97450.63
2023-02-20T19:14:36.843Z,97451.88
2023-02-20T19:17:05.420Z,97447.69
2023-02-20T19:19:34.826Z,97440.33
2023-02-20T19:22:04.123Z,97430.88
2023-02-20T19:24:32.710Z,97435.67
2023-02-20T19:27:01.293Z,97427.92
2023-02-20T19:29:29.887Z,97430.23
2023-02-20T19:32:00.528Z,97436.77
2023-02-20T19:34:29.199Z,97429.94
2023-02-20T19:36:57.987Z,97420.98
2023-02-20T19:39:26.460Z,97422.86
2023-02-20T19:41:55.151Z,97418.94
2023-02-20T19:44:24.443Z,97410.45
2023-02-20T19:46:53.643Z,97406.36
2023-02-20T19:49:23.112Z,97390.98
2023-02-20T19:51:54.093Z,97381.30
2023-02-20T19:54:27.858Z,97382.48
2023-02-20T19:56:59.591Z,97385.21
2023-02-20T19:59:29.663Z,97380.86
2023-02-20T20:02:00.215Z,97376.53
2023-02-20T20:04:32.247Z,97363.30
2023-02-20T20:07:03.011Z,97356.52
2023-02-20T20:09:37.622Z,97356.83
2023-02-20T20:12:43.679Z,97352.80
2023-02-20T20:15:13.497Z,97347.21
2023-02-20T20:17:42.177Z,97338.04
2023-02-20T20:20:11.489Z,97330.45
2023-02-20T20:22:40.065Z,97322.81
2023-02-20T20:25:12.030Z,97324.86
2023-02-20T20:27:41.116Z,97321.16
2023-02-20T20:30:17.355Z,97321.79
2023-02-20T20:32:50.074Z,97318.31
2023-02-20T20:35:20.793Z,97320.44
2023-02-20T20:37:50.397Z,97314.48
2023-02-20T20:40:21.711Z,97323.60
2023-02-20T20:42:51.868Z,97325.44
2023-02-20T20:45:22.087Z,97324.45
2023-02-20T20:47:52.166Z,97329.35
2023-02-20T20:50:24.392Z,97333.21
2023-02-20T20:52:53.160Z,97323.34
2023-02-20T20:55:21.746Z,97315.73
2023-02-20T20:57:54.019Z,97315.05
2023-02-20T21:00:26.495Z,97313.27
2023-02-20T21:02:55.599Z,97305.86
2023-02-20T21:05:28.692Z,97301.14
2023-02-20T21:07:58.387Z,97294.73
2023-02-20T21:10:27.678Z,97299.50
2023-02-20T21:12:58.524Z,97298.03
2023-02-20T21:15:28.189Z,97296.66
2023-02-20T21:17:57.323Z,97294.61
2023-02-20T21:20:27.859Z,97291.79
2023-02-20T21:22:57.680Z,97294.98
2023-02-20T21:25:27.884Z,97286.83
2023-02-20T21:27:57.801Z,97279.85
2023-02-20T21:30:27.587Z,97273.48
2023-02-20T21:32:56.606Z,97271.91
2023-02-20T21:35:26.522Z,97260.41
2023-02-20T21:37:55.205Z,97268.27
2023-02-20T21:40:23.989Z,97261.60
2023-02-20T21:43:11.325Z,97259.72
2023-02-20T21:45:40.006Z,97258.96
2023-02-20T21:48:08.693Z,97251.29
2023-02-20T21:50:37.892Z,97248.98
2023-02-20T21:53:06.876Z,97241.86
2023-02-20T21:55:35.563Z,97237.24
2023-02-20T21:58:04.353Z,97231.59
2023-02-20T22:00:32.947Z,97223.15
2023-02-20T22:03:01.646Z,97216.00
2023-02-20T22:05:30.715Z,97205.80
2023-02-20T22:08:18.038Z,97199.40
2023-02-20T22:11:05.262Z,97192.70
2023-02-20T22:13:52.687Z,97189.98
2023-02-20T22:16:40.542Z,97187.48
2023-02-20T22:19:27.944Z,97188.80
2023-02-20T22:22:20.002Z,97182.65
2023-02-20T22:25:07.428Z,97183.09
2023-02-20T22:27:54.623Z,97177.90
2023-02-20T22:30:41.981Z,97169.58
2023-02-20T22:33:29.274Z,97172.08
2023-02-20T22:36:16.927Z,97162.52
2023-02-20T22:39:04.467Z,97161.44
2023-02-20T22:41:51.775Z,97164.72
2023-02-20T22:44:39.084Z,97159.15
2023-02-20T22:47:26.810Z,97156.71
2023-02-20T22:50:14.651Z,97151.41
2023-02-20T22:53:02.704Z,97143.46
2023-02-20T22:55:50.310Z,97138.16
2023-02-20T22:58:38.463Z,97125.31
2023-02-20T23:01:25.781Z,97126.27
2023-02-20T23:04:13.914Z,97108.54
2023-02-20T23:07:01.564Z,97113.14
2023-02-20T23:09:49.391Z,97104.31
2023-02-20T23:12:36.916Z,97105.20
2023-02-20T23:15:24.923Z,97100.59
2023-02-20T23:18:13.095Z,97098.52
2023-02-20T23:21:01.349Z,97090.34
2023-02-20T23:23:48.786Z,97093.65
2023-02-20T23:26:36.910Z,97089.13
2023-02-20T23:29:24.337Z,97088.49
2023-02-20T23:32:14.281Z,97085.30
2023-02-20T23:35:02.557Z,97085.45
2023-02-20T23:37:49.668Z,97079.58
2023-02-20T23:40:37.602Z,97068.44
2023-02-20T23:43:26.878Z,97065.17
2023-02-20T23:46:14.495Z,97053.30
2023-02-20T23:49:03.045Z,97048.23
2023-02-20T23:51:51.100Z,97050.99
2023-02-20T23:54:39.852Z,97044.98
2023-02-20T23:57:27.688Z,97038.77
